createdAt,value
2019-04-22T00:02:06.015Z,94.20
2019-04-22T00:04:10.848Z,94.90
2019-04-22T00:06:32.782Z,94.80
2019-04-22T00:08:36.205Z,94.70
2019-04-22T00:10:47.045Z,96.80
2019-04-22T00:12:47.091Z,97.40
2019-04-22T00:14:42.020Z,97.90
2019-04-22T00:16:53.264Z,97.30
2019-04-22T00:19:09.380Z,97.60
2019-04-22T00:20:58.230Z,96.90
2019-04-22T00:23:03.690Z,96.10
2019-04-22T00:25:08.323Z,96.30
2019-04-22T00:27:13.835Z,96.30
2019-04-22T00:29:37.085Z,98.10
2019-04-22T00:31:38.531Z,97.20
2019-04-22T00:33:34.296Z,98.70
2019-04-22T00:35:35.461Z,95.80
2019-04-22T00:37:43.460Z,96.40
2019-04-22T00:39:46.341Z,98.10
2019-04-22T00:41:52.084Z,95.50
2019-04-22T00:43:58.199Z,96.60
2019-04-22T00:45:55.925Z,97.10
2019-04-22T00:48:01.087Z,96.80
2019-04-22T00:50:20.930Z,96.50
2019-04-22T00:52:10.882Z,97.80
2019-04-22T00:54:07.260Z,98.80
2019-04-22T00:56:15.719Z,99.70
2019-04-22T00:58:17.817Z,98.70
2019-04-22T01:00:21.319Z,98.70
2019-04-22T01:02:27.482Z,98.30
2019-04-22T01:04:34.672Z,99.70
2019-04-22T01:06:47.215Z,99.30
2019-04-22T01:08:40.274Z,99.90
2019-04-22T01:10:40.735Z,99.90
2019-04-22T01:12:39.192Z,99.60
2019-04-22T01:14:41.732Z,99.90
2019-04-22T01:16:48.904Z,99.90
2019-04-22T01:18:49.043Z,99.90
2019-04-22T01:21:13.611Z,99.90
2019-04-22T01:22:58.954Z,99.90
2019-04-22T01:25:02.446Z,99.90
2019-04-22T01:27:00.497Z,99.90
2019-04-22T01:29:01.076Z,99.90
2019-04-22T01:31:01.974Z,99.90
2019-04-22T01:33:08.300Z,99.90
2019-04-22T01:35:12.956Z,99.90
2019-04-22T01:37:23.994Z,99.90
2019-04-22T01:39:31.899Z,99.90
2019-04-22T01:41:42.294Z,99.90
2019-04-22T01:43:54.450Z,99.90
2019-04-22T01:45:47.980Z,99.90
2019-04-22T01:48:03.922Z,99.90
2019-04-22T01:49:46.392Z,99.90
2019-04-22T01:52:02.947Z,99.90
2019-04-22T01:54:03.910Z,99.90
2019-04-22T01:56:01.876Z,99.90
2019-04-22T01:58:04.540Z,99.90
2019-04-22T02:00:00.980Z,99.90
2019-04-22T02:02:14.358Z,99.90
2019-04-22T02:04:17.366Z,99.90
2019-04-22T02:06:27.678Z,99.90
2019-04-22T02:08:33.356Z,99.90
2019-04-22T02:10:32.322Z,99.90
2019-04-22T02:12:25.664Z,99.90
2019-04-22T02:14:37.371Z,99.90
2019-04-22T02:16:34.277Z,99.90
2019-04-22T02:18:39.415Z,99.90
2019-04-22T02:20:43.256Z,99.90
2019-04-22T02:25:26.704Z,99.90
2019-04-22T02:27:35.368Z,99.90
2019-04-22T02:29:29.967Z,99.90
2019-04-22T02:31:51.026Z,99.90
2019-04-22T02:34:01.278Z,99.90
2019-04-22T02:36:01.903Z,99.90
2019-04-22T02:37:46.226Z,99.90
2019-04-22T02:41:50.909Z,99.90
2019-04-22T02:48:18.382Z,99.90
2019-04-22T02:52:15.697Z,99.90
2019-04-22T02:54:36.587Z,99.90
2019-04-22T02:56:27.280Z,99.90
2019-04-22T02:58:25.680Z,99.90
2019-04-22T03:02:43.049Z,99.90
2019-04-22T03:04:22.859Z,99.90
2019-04-22T03:08:39.659Z,99.90
2019-04-22T03:12:48.221Z,99.90
2019-04-22T03:21:07.021Z,99.90
2019-04-22T03:25:33.019Z,99.90
2019-04-22T03:27:08.141Z,99.90
2019-04-22T03:29:28.238Z,99.90
2019-04-22T03:31:55.130Z,99.90
2019-04-22T03:33:43.645Z,99.90
2019-04-22T03:35:57.478Z,99.90
2019-04-22T03:41:57.208Z,99.90
2019-04-22T03:44:10.556Z,99.90
2019-04-22T03:45:37.956Z,99.90
2019-04-22T03:48:02.795Z,99.90
2019-04-22T03:50:11.204Z,99.90
2019-04-22T03:52:15.787Z,99.90
2019-04-22T03:54:17.371Z,99.90
2019-04-22T03:56:04.008Z,99.90
2019-04-22T03:58:20.846Z,99.90
2019-04-22T04:02:29.325Z,99.90
2019-04-22T04:04:23.978Z,99.90
2019-04-22T04:06:34.652Z,99.90
2019-04-22T04:08:33.419Z,99.90
2019-04-22T04:12:42.039Z,99.90
2019-04-22T04:14:46.452Z,99.90
2019-04-22T04:16:47.743Z,99.90
2019-04-22T04:22:59.031Z,99.90
2019-04-22T04:27:06.739Z,99.90
2019-04-22T04:29:22.984Z,99.90
2019-04-22T04:31:09.463Z,99.90
2019-04-22T04:33:21.164Z,99.90
2019-04-22T04:37:38.925Z,99.90
2019-04-22T04:39:22.080Z,99.90
2019-04-22T04:41:27.107Z,99.90
2019-04-22T04:43:25.956Z,99.90
2019-04-22T04:45:38.553Z,99.90
2019-04-22T04:47:42.786Z,99.90
2019-04-22T04:51:38.474Z,99.90
2019-04-22T04:53:53.486Z,99.90
2019-04-22T04:56:08.356Z,99.90
2019-04-22T04:58:10.145Z,99.90
2019-04-22T05:00:29.906Z,99.90
2019-04-22T05:01:55.210Z,99.90
2019-04-22T05:04:04.704Z,99.90
2019-04-22T05:06:10.728Z,99.90
2019-04-22T05:08:01.046Z,99.90
2019-04-22T05:10:34.890Z,99.90
2019-04-22T05:18:26.559Z,99.90
2019-04-22T05:22:28.601Z,99.90
2019-04-22T05:24:28.362Z,99.90
2019-04-22T05:26:36.625Z,99.90
2019-04-22T05:28:31.540Z,99.90
2019-04-22T05:34:52.814Z,99.90
2019-04-22T05:36:48.040Z,99.90
2019-04-22T05:38:58.234Z,99.90
2019-04-22T05:40:51.504Z,99.90
2019-04-22T05:42:56.060Z,99.90
2019-04-22T05:45:04.689Z,99.90
2019-04-22T05:47:02.693Z,99.90
2019-04-22T05:49:06.341Z,99.90
2019-04-22T05:51:10.012Z,99.90
2019-04-22T05:53:07.081Z,99.90
2019-04-22T05:55:15.016Z,99.90
2019-04-22T05:57:20.274Z,99.90
2019-04-22T05:59:28.897Z,99.90
2019-04-22T06:01:38.892Z,99.90
2019-04-22T06:03:32.507Z,99.90
2019-04-22T06:05:35.758Z,99.90
2019-04-22T06:07:38.490Z,99.90
2019-04-22T06:09:47.258Z,99.90
2019-04-22T06:11:36.056Z,99.90
2019-04-22T06:13:50.066Z,99.90
2019-04-22T06:15:55.653Z,99.90
2019-04-22T06:18:10.123Z,99.90
2019-04-22T06:20:02.294Z,99.90
2019-04-22T06:22:12.853Z,99.90
2019-04-22T06:24:18.496Z,99.90
2019-04-22T06:28:29.095Z,99.90
2019-04-22T06:30:23.219Z,99.70
2019-04-22T06:34:28.935Z,97.80
2019-04-22T06:40:41.746Z,94.40
2019-04-22T06:42:44.941Z,92.80
2019-04-22T06:44:50.010Z,91.90
2019-04-22T06:46:47.681Z,88.90
2019-04-22T06:48:47.914Z,90.20
2019-04-22T06:50:58.384Z,83.10
2019-04-22T06:53:00.061Z,82.30
2019-04-22T06:55:05.927Z,82.50
2019-04-22T06:59:08.541Z,81.00
2019-04-22T07:01:18.126Z,83.10
2019-04-22T07:03:34.643Z,81.20
2019-04-22T07:05:40.284Z,82.80
2019-04-22T07:07:20.123Z,81.20
2019-04-22T07:09:28.507Z,82.20
2019-04-22T07:11:23.685Z,84.20
2019-04-22T07:15:46.426Z,89.80
2019-04-22T07:17:44.058Z,79.30
2019-04-22T07:19:45.215Z,76.20
2019-04-22T07:21:46.900Z,78.40
2019-04-22T07:24:20.134Z,79.50
2019-04-22T07:25:56.535Z,73.80
2019-04-22T07:28:13.938Z,77.00
2019-04-22T07:30:03.899Z,74.10
2019-04-22T07:34:15.725Z,80.00
2019-04-22T07:38:19.021Z,77.50
2019-04-22T07:40:25.167Z,73.20
2019-04-22T07:42:19.328Z,77.20
2019-04-22T07:44:26.436Z,76.70
2019-04-22T07:46:28.701Z,72.60
2019-04-22T07:48:43.312Z,78.00
2019-04-22T07:50:50.691Z,73.20
2019-04-22T07:52:35.419Z,67.60
2019-04-22T07:54:43.455Z,70.40
2019-04-22T07:56:43.656Z,71.50
2019-04-22T07:58:46.900Z,68.10
2019-04-22T08:01:12.137Z,70.50
2019-04-22T08:03:12.126Z,70.50
2019-04-22T08:05:08.259Z,69.30
2019-04-22T08:07:11.163Z,67.00
2019-04-22T08:09:11.356Z,68.50
2019-04-22T08:11:21.579Z,66.60
2019-04-22T08:13:11.731Z,65.50
2019-04-22T08:15:12.642Z,67.10
2019-04-22T08:17:38.511Z,65.60
2019-04-22T08:19:20.528Z,67.30
2019-04-22T08:21:22.268Z,67.00
2019-04-22T08:23:31.688Z,67.10
2019-04-22T08:25:36.748Z,61.70
2019-04-22T08:27:35.504Z,64.80
2019-04-22T08:29:46.080Z,63.20
2019-04-22T08:32:00.461Z,65.70
2019-04-22T08:34:06.377Z,64.70
2019-04-22T08:38:11.943Z,60.50
2019-04-22T08:40:26.020Z,59.90
2019-04-22T08:42:27.875Z,60.10
2019-04-22T08:44:27.953Z,60.50
2019-04-22T08:48:31.190Z,58.40
2019-04-22T08:50:33.705Z,55.30
2019-04-22T08:52:40.612Z,57.00
2019-04-22T08:54:44.295Z,54.90
2019-04-22T08:56:45.819Z,56.70
2019-04-22T09:00:57.274Z,56.20
2019-04-22T09:02:59.533Z,56.10
2019-04-22T09:05:10.544Z,54.90
2019-04-22T09:09:09.734Z,53.30
2019-04-22T09:11:16.048Z,54.20
2019-04-22T09:13:05.883Z,54.50
2019-04-22T09:15:18.497Z,55.70
2019-04-22T09:17:20.067Z,53.50
2019-04-22T09:19:17.845Z,51.80
2019-04-22T09:21:32.912Z,51.30
2019-04-22T09:23:33.882Z,49.10
2019-04-22T09:25:36.911Z,48.80
2019-04-22T09:27:38.487Z,48.10
2019-04-22T09:29:41.233Z,47.80
2019-04-22T09:31:45.776Z,45.20
2019-04-22T09:33:45.993Z,45.60
2019-04-22T09:35:52.383Z,45.00
2019-04-22T09:38:00.284Z,48.20
2019-04-22T09:40:01.024Z,44.60
2019-04-22T09:42:02.481Z,45.50
2019-04-22T09:44:05.526Z,40.50
2019-04-22T09:46:08.936Z,43.00
2019-04-22T09:48:18.087Z,41.70
2019-04-22T09:50:22.265Z,44.90
2019-04-22T09:52:14.993Z,41.60
2019-04-22T09:54:21.827Z,41.20
2019-04-22T09:56:23.858Z,43.90
2019-04-22T09:58:23.526Z,42.60
2019-04-22T10:00:37.476Z,41.40
2019-04-22T10:02:42.740Z,43.40
2019-04-22T10:04:41.945Z,44.10
2019-04-22T10:06:36.709Z,43.20
2019-04-22T10:10:49.008Z,44.10
2019-04-22T10:12:54.019Z,41.70
2019-04-22T10:14:55.495Z,43.90
2019-04-22T10:16:57.891Z,40.70
2019-04-22T10:19:09.986Z,41.80
2019-04-22T10:21:12.758Z,44.10
2019-04-22T10:23:17.670Z,44.90
2019-04-22T10:25:10.642Z,42.70
2019-04-22T10:27:12.980Z,41.40
2019-04-22T10:29:19.902Z,40.50
2019-04-22T10:31:24.945Z,40.00
2019-04-22T10:33:22.096Z,41.60
2019-04-22T10:35:12.970Z,43.20
2019-04-22T10:37:14.760Z,42.50
2019-04-22T10:39:14.337Z,42.70
2019-04-22T10:41:16.580Z,43.10
2019-04-22T10:43:19.147Z,44.30
2019-04-22T10:45:21.990Z,43.50
2019-04-22T10:47:24.069Z,42.20
2019-04-22T10:49:26.791Z,42.90
2019-04-22T10:51:28.648Z,40.90
2019-04-22T10:53:31.280Z,43.20
2019-04-22T10:55:33.022Z,41.60
2019-04-22T10:57:35.907Z,42.80
2019-04-22T10:59:38.543Z,43.60
2019-04-22T11:01:40.430Z,42.10
2019-04-22T11:03:43.101Z,43.90
2019-04-22T11:05:46.236Z,42.00
2019-04-22T11:07:53.997Z,43.30
2019-04-22T11:09:58.981Z,43.60
2019-04-22T11:12:03.715Z,41.40
2019-04-22T11:13:58.088Z,42.20
2019-04-22T11:16:00.573Z,39.70
2019-04-22T11:18:02.631Z,40.90
2019-04-22T11:20:05.847Z,40.80
2019-04-22T11:22:15.003Z,44.20
2019-04-22T11:24:10.813Z,41.50
2019-04-22T11:26:12.273Z,40.80
2019-04-22T11:28:13.864Z,41.30
2019-04-22T11:30:19.029Z,41.80
2019-04-22T11:32:20.260Z,43.10
2019-04-22T11:34:21.866Z,43.40
2019-04-22T11:36:24.738Z,41.40
2019-04-22T11:38:26.836Z,41.50
2019-04-22T11:40:34.588Z,41.00
2019-04-22T11:42:32.276Z,42.40
2019-04-22T11:44:35.198Z,41.70
2019-04-22T11:46:36.866Z,41.90
2019-04-22T11:48:38.271Z,40.80
2019-04-22T11:50:40.073Z,39.10
2019-04-22T11:52:42.581Z,41.60
2019-04-22T11:54:44.399Z,43.30
2019-04-22T11:56:47.210Z,43.90
2019-04-22T11:58:49.002Z,42.30
2019-04-22T12:00:51.971Z,41.40
2019-04-22T12:02:54.718Z,41.60
2019-04-22T12:04:56.345Z,41.40
2019-04-22T12:06:58.003Z,42.80
2019-04-22T12:08:59.633Z,40.90
2019-04-22T12:11:04.350Z,44.20
2019-04-22T12:13:06.232Z,42.90
2019-04-22T12:15:08.870Z,44.00
2019-04-22T12:17:11.331Z,41.00
2019-04-22T12:19:13.540Z,41.20
2019-04-22T12:21:15.279Z,42.00
2019-04-22T12:23:17.052Z,43.00
2019-04-22T12:25:32.299Z,44.50
2019-04-22T12:27:26.008Z,43.00
2019-04-22T12:29:27.131Z,41.30
2019-04-22T12:31:29.335Z,41.20
2019-04-22T12:33:31.628Z,42.60
2019-04-22T12:35:34.502Z,43.50
2019-04-22T12:37:45.750Z,43.10
2019-04-22T12:39:39.367Z,40.60
2019-04-22T12:41:42.228Z,41.70
2019-04-22T12:43:45.090Z,43.30
2019-04-22T12:45:47.989Z,42.70
2019-04-22T12:47:50.427Z,43.50
2019-04-22T12:49:57.200Z,44.80
2019-04-22T12:51:56.876Z,43.00
2019-04-22T12:53:59.398Z,42.10
2019-04-22T12:56:01.290Z,43.20
2019-04-22T12:58:03.035Z,43.90
2019-04-22T13:00:08.060Z,43.60
2019-04-22T13:02:09.407Z,43.10
2019-04-22T13:04:15.308Z,42.70
2019-04-22T13:06:14.378Z,43.30
2019-04-22T13:08:15.897Z,42.70
2019-04-22T13:10:17.825Z,43.60
2019-04-22T13:12:19.374Z,43.60
2019-04-22T13:14:21.243Z,43.00
2019-04-22T13:16:23.006Z,40.80
2019-04-22T13:18:35.526Z,42.70
2019-04-22T13:20:28.200Z,42.50
2019-04-22T13:22:30.612Z,41.60
2019-04-22T13:24:32.171Z,42.40
2019-04-22T13:26:33.841Z,41.80
2019-04-22T13:28:36.712Z,41.70
2019-04-22T13:30:38.718Z,42.90
2019-04-22T13:32:40.732Z,41.80
2019-04-22T13:34:46.532Z,42.90
2019-04-22T13:36:47.047Z,43.40
2019-04-22T13:38:49.222Z,42.90
2019-04-22T13:41:14.013Z,44.30
2019-04-22T13:42:55.449Z,43.80
2019-04-22T13:44:58.091Z,42.70
2019-04-22T13:47:17.046Z,43.20
2019-04-22T13:49:34.077Z,42.80
2019-04-22T13:51:43.246Z,41.30
2019-04-22T13:53:47.980Z,42.60
2019-04-22T13:55:45.073Z,42.80
2019-04-22T13:57:32.600Z,43.90
2019-04-22T13:59:28.740Z,42.50
2019-04-22T14:01:43.058Z,42.40
2019-04-22T14:03:49.175Z,42.60
2019-04-22T14:05:55.394Z,42.60
2019-04-22T14:07:57.551Z,43.20
2019-04-22T14:10:00.227Z,42.00
2019-04-22T14:12:05.747Z,42.80
2019-04-22T14:14:05.171Z,42.30
2019-04-22T14:16:06.918Z,40.70
2019-04-22T14:18:08.493Z,40.50
2019-04-22T14:20:11.187Z,40.10
2019-04-22T14:22:13.809Z,41.60
2019-04-22T14:24:15.788Z,41.80
2019-04-22T14:26:17.551Z,42.10
2019-04-22T14:28:21.126Z,41.30
2019-04-22T14:30:22.501Z,43.00
2019-04-22T14:32:27.981Z,41.60
2019-04-22T14:34:28.517Z,42.50
2019-04-22T14:36:30.433Z,40.40
2019-04-22T14:38:32.413Z,39.40
2019-04-22T14:40:36.202Z,40.60
2019-04-22T14:42:59.014Z,40.90
2019-04-22T14:47:15.672Z,41.30
2019-04-22T14:49:10.453Z,41.70
2019-04-22T14:51:07.124Z,41.50
2019-04-22T14:53:15.763Z,42.20
2019-04-22T14:55:06.106Z,42.70
2019-04-22T14:57:01.135Z,42.50
2019-04-22T14:59:02.990Z,43.00
2019-04-22T15:01:06.695Z,42.10
2019-04-22T15:03:08.419Z,42.10
2019-04-22T15:05:12.224Z,42.50
2019-04-22T15:07:15.005Z,42.80
2019-04-22T15:09:16.660Z,42.40
2019-04-22T15:11:19.293Z,42.70
2019-04-22T15:13:21.218Z,43.10
2019-04-22T15:15:44.206Z,43.20
2019-04-22T15:17:45.296Z,42.90
2019-04-22T15:19:54.378Z,43.20
2019-04-22T15:21:58.644Z,45.30
2019-04-22T15:24:02.463Z,44.10
2019-04-22T15:26:04.578Z,44.20
2019-04-22T15:28:06.240Z,44.20
2019-04-22T15:30:09.599Z,44.60
2019-04-22T15:32:11.729Z,44.20
2019-04-22T15:34:14.357Z,44.30
2019-04-22T15:36:15.897Z,45.40
2019-04-22T15:38:18.313Z,44.70
2019-04-22T15:40:20.743Z,44.40
2019-04-22T15:42:28.151Z,44.10
2019-04-22T15:44:26.095Z,44.90
2019-04-22T15:46:27.844Z,44.00
2019-04-22T15:48:32.232Z,45.20
2019-04-22T15:50:32.843Z,45.50
2019-04-22T15:52:42.013Z,44.70
2019-04-22T15:54:37.809Z,44.50
2019-04-22T15:56:39.214Z,44.50
2019-04-22T15:58:41.794Z,44.00
2019-04-22T16:00:54.076Z,44.60
2019-04-22T16:02:47.799Z,45.60
2019-04-22T16:04:50.274Z,44.80
2019-04-22T16:06:52.776Z,44.70
2019-04-22T16:08:54.341Z,45.60
2019-04-22T16:10:55.891Z,45.50
2019-04-22T16:13:07.300Z,45.40
2019-04-22T16:15:03.102Z,44.90
2019-04-22T16:17:04.420Z,44.60
2019-04-22T16:19:06.821Z,45.70
2019-04-22T16:21:09.048Z,46.00
2019-04-22T16:23:31.988Z,44.90
2019-04-22T16:25:51.288Z,44.40
2019-04-22T16:27:54.424Z,43.50
2019-04-22T16:29:57.157Z,43.80
2019-04-22T16:31:58.755Z,42.00
2019-04-22T16:34:00.529Z,44.10
2019-04-22T16:36:02.768Z,42.50
2019-04-22T16:38:04.485Z,42.90
2019-04-22T16:40:07.192Z,43.40
2019-04-22T16:42:08.980Z,42.70
2019-04-22T16:44:10.566Z,42.30
2019-04-22T16:46:11.992Z,42.60
2019-04-22T16:48:13.750Z,43.00
2019-04-22T16:50:15.995Z,43.10
2019-04-22T16:52:18.309Z,43.60
2019-04-22T16:54:20.165Z,43.70
2019-04-22T16:56:22.544Z,44.10
2019-04-22T16:58:25.141Z,43.40
2019-04-22T17:00:27.081Z,43.40
2019-04-22T17:02:49.803Z,43.50
2019-04-22T17:05:02.024Z,44.00
2019-04-22T17:07:05.887Z,44.40
2019-04-22T17:09:08.905Z,44.00
2019-04-22T17:11:11.746Z,44.80
2019-04-22T17:13:19.290Z,44.50
2019-04-22T17:15:18.493Z,44.70
2019-04-22T17:17:20.318Z,45.60
2019-04-22T17:19:21.831Z,45.50
2019-04-22T17:21:23.604Z,46.10
2019-04-22T17:23:25.594Z,45.80
2019-04-22T17:25:27.189Z,46.20
2019-04-22T17:27:30.945Z,46.30
2019-04-22T17:29:32.436Z,47.00
2019-04-22T17:31:34.620Z,47.50
2019-04-22T17:33:37.118Z,48.00
2019-04-22T17:35:40.160Z,47.50
2019-04-22T17:37:42.916Z,48.20
2019-04-22T17:39:57.239Z,48.70
2019-04-22T17:42:05.366Z,48.80
2019-04-22T17:44:20.264Z,49.10
2019-04-22T17:46:15.047Z,49.30
2019-04-22T17:48:48.862Z,49.80
2019-04-22T17:50:57.831Z,50.00
2019-04-22T17:53:02.853Z,50.60
2019-04-22T17:54:51.605Z,51.10
2019-04-22T17:57:01.798Z,51.20
2019-04-22T17:59:02.657Z,51.60
2019-04-22T18:01:09.197Z,51.60
2019-04-22T18:03:03.167Z,51.80
2019-04-22T18:04:59.343Z,52.10
2019-04-22T18:07:23.416Z,52.30
2019-04-22T18:09:19.305Z,52.50
2019-04-22T18:11:28.829Z,52.60
2019-04-22T18:13:35.706Z,53.00
2019-04-22T18:15:30.701Z,53.30
2019-04-22T18:17:37.230Z,53.60
2019-04-22T18:19:35.050Z,53.50
2019-04-22T18:21:36.427Z,53.50
2019-04-22T18:23:29.301Z,54.10
2019-04-22T18:25:46.784Z,53.90
2019-04-22T18:27:57.134Z,54.70
2019-04-22T18:29:51.778Z,54.70
2019-04-22T18:31:49.005Z,54.40
2019-04-22T18:33:59.467Z,54.50
2019-04-22T18:36:01.101Z,55.20
2019-04-22T18:38:11.296Z,55.00
2019-04-22T18:40:11.975Z,55.60
2019-04-22T18:42:09.173Z,55.40
2019-04-22T18:44:19.838Z,55.90
2019-04-22T18:46:22.411Z,56.20
2019-04-22T18:48:17.743Z,56.30
2019-04-22T18:50:43.121Z,56.90
2019-04-22T18:52:54.488Z,57.00
2019-04-22T18:54:56.990Z,57.70
2019-04-22T18:57:08.006Z,57.10
2019-04-22T18:59:02.418Z,57.60
2019-04-22T19:00:54.931Z,57.60
2019-04-22T19:03:04.870Z,57.60
2019-04-22T19:05:09.807Z,58.30
2019-04-22T19:07:32.626Z,58.40
2019-04-22T19:09:38.642Z,58.70
2019-04-22T19:11:41.366Z,58.40
2019-04-22T19:13:56.051Z,59.10
2019-04-22T19:15:52.767Z,59.30
2019-04-22T19:17:58.289Z,59.70
2019-04-22T19:19:49.929Z,59.90
2019-04-22T19:21:47.625Z,60.10
2019-04-22T19:23:54.013Z,60.50
2019-04-22T19:25:52.603Z,60.60
2019-04-22T19:28:01.230Z,61.00
2019-04-22T19:30:04.497Z,61.60
2019-04-22T19:32:06.945Z,61.20
2019-04-22T19:34:14.390Z,61.70
2019-04-22T19:36:14.945Z,61.90
2019-04-22T19:38:10.895Z,62.00
2019-04-22T19:40:25.910Z,63.00
2019-04-22T19:42:30.742Z,62.80
2019-04-22T19:44:25.918Z,64.40
2019-04-22T19:46:28.568Z,63.80
2019-04-22T19:48:42.613Z,64.60
2019-04-22T19:50:46.364Z,64.40
2019-04-22T19:52:41.857Z,64.70
2019-04-22T19:54:44.033Z,65.20
2019-04-22T19:56:38.296Z,65.40
2019-04-22T19:58:41.465Z,65.70
2019-04-22T20:00:49.275Z,66.10
2019-04-22T20:03:16.734Z,66.30
2019-04-22T20:05:20.337Z,67.00
2019-04-22T20:07:15.462Z,67.50
2019-04-22T20:09:33.401Z,68.60
2019-04-22T20:11:29.654Z,68.80
2019-04-22T20:13:37.097Z,70.00
2019-04-22T20:15:32.302Z,70.10
2019-04-22T20:17:44.000Z,71.40
2019-04-22T20:19:49.893Z,71.30
2019-04-22T20:21:46.498Z,73.20
2019-04-22T20:23:42.028Z,73.00
2019-04-22T20:25:48.286Z,73.70
2019-04-22T20:28:01.390Z,75.20
2019-04-22T20:29:58.106Z,76.60
2019-04-22T20:32:05.928Z,78.40
2019-04-22T20:34:18.743Z,80.20
2019-04-22T20:36:26.863Z,81.90
2019-04-22T20:38:14.901Z,83.10
2019-04-22T20:40:20.100Z,83.90
2019-04-22T20:42:36.258Z,85.70
2019-04-22T20:44:29.101Z,87.40
2019-04-22T20:46:24.079Z,88.50
2019-04-22T20:48:37.612Z,90.00
2019-04-22T20:50:34.716Z,90.80
2019-04-22T20:52:47.191Z,91.70
2019-04-22T20:54:40.752Z,91.80
2019-04-22T20:56:45.079Z,92.20
2019-04-22T20:58:54.673Z,92.50
2019-04-22T21:00:49.497Z,92.80
2019-04-22T21:02:46.580Z,93.00
2019-04-22T21:04:50.425Z,93.70
2019-04-22T21:07:01.324Z,94.00
2019-04-22T21:09:07.523Z,95.40
2019-04-22T21:11:04.358Z,95.10
2019-04-22T21:13:08.656Z,95.30
2019-04-22T21:15:23.853Z,95.70
2019-04-22T21:17:17.405Z,96.40
2019-04-22T21:19:28.090Z,97.10
2019-04-22T21:21:26.454Z,97.10
2019-04-22T21:23:22.976Z,97.20
2019-04-22T21:25:27.717Z,98.20
2019-04-22T21:27:40.430Z,98.00
2019-04-22T21:29:33.422Z,98.20
2019-04-22T21:31:48.303Z,98.90
2019-04-22T21:33:47.267Z,99.00
2019-04-22T21:35:59.567Z,98.80
2019-04-22T21:37:58.302Z,99.00
2019-04-22T21:39:51.891Z,99.10
2019-04-22T21:42:03.280Z,99.40
2019-04-22T21:44:04.018Z,99.50
2019-04-22T21:46:08.211Z,99.50
2019-04-22T21:48:24.111Z,99.60
2019-04-22T21:50:31.037Z,99.80
2019-04-22T21:52:17.085Z,99.40
2019-04-22T21:54:22.096Z,99.50
2019-04-22T21:58:31.774Z,99.90
2019-04-22T22:00:44.556Z,99.90
2019-04-22T22:02:52.575Z,99.90
2019-04-22T22:04:38.415Z,99.90
2019-04-22T22:06:40.355Z,99.90
2019-04-22T22:08:51.309Z,99.90
2019-04-22T22:10:58.375Z,99.90
2019-04-22T22:13:00.808Z,99.90
2019-04-22T22:15:04.187Z,99.90
2019-04-22T22:16:56.234Z,99.90
2019-04-22T22:19:27.218Z,99.90
2019-04-22T22:21:48.433Z,99.90
2019-04-22T22:23:45.635Z,99.90
2019-04-22T22:25:46.832Z,99.90
2019-04-22T22:27:46.188Z,99.90
2019-04-22T22:31:57.861Z,99.90
2019-04-22T22:34:04.079Z,99.90
2019-04-22T22:36:00.715Z,99.90
2019-04-22T22:38:03.009Z,99.90
2019-04-22T22:39:57.993Z,99.90
2019-04-22T22:41:52.088Z,99.90
2019-04-22T22:44:03.336Z,99.90
2019-04-22T22:46:13.547Z,99.90
2019-04-22T22:48:39.849Z,99.90
2019-04-22T22:50:26.023Z,99.90
2019-04-22T22:54:34.751Z,99.90
2019-04-22T22:56:42.646Z,99.90
2019-04-22T22:58:41.349Z,99.90
2019-04-22T23:00:39.357Z,99.90
2019-04-22T23:03:03.402Z,99.90
2019-04-22T23:04:52.795Z,99.90
2019-04-22T23:06:56.332Z,99.90
2019-04-22T23:09:00.796Z,99.90
2019-04-22T23:11:12.060Z,99.90
2019-04-22T23:13:08.483Z,99.90
2019-04-22T23:15:07.906Z,99.90
2019-04-22T23:16:57.301Z,99.90
2019-04-22T23:19:02.011Z,99.90
2019-04-22T23:21:10.580Z,99.90
2019-04-22T23:23:31.407Z,99.90
2019-04-22T23:25:33.354Z,99.90
2019-04-22T23:27:40.407Z,99.90
2019-04-22T23:29:41.183Z,99.90
2019-04-22T23:31:46.822Z,99.90
2019-04-22T23:33:58.149Z,99.90
2019-04-22T23:36:01.517Z,99.90
2019-04-22T23:38:06.259Z,99.90
2019-04-22T23:40:26.019Z,99.90
2019-04-22T23:42:22.239Z,99.90
2019-04-22T23:44:39.021Z,99.90
2019-04-22T23:46:21.591Z,99.90
2019-04-22T23:48:20.712Z,99.90
2019-04-22T23:50:34.053Z,99.90
2019-04-22T23:52:35.642Z,99.90
2019-04-22T23:54:46.516Z,99.90
2019-04-22T23:56:43.543Z,99.90
2019-04-22T23:58:52.891Z,99.90
